Time;durP1;ratioP1;P1;durP2;ratioP2;P2;SDS_P1;SDS_P2;PMS_P1;PMS_P2;Temp;Humidity;BMP_temperature;BMP_pressure;BME280_temperature;BME280_humidity;BME280_pressure;Samples;Min_cycle;Max_cycle;Signal;HPM_P1;HPM_P2
2022/09/28 00:01:52;;;;;;;12.52;11.23;;;;;;;7.15;100.00;99533.97;5011714;28;20552;-84
2022/09/28 00:04:18;;;;;;;12.95;11.38;;;;;;;7.11;100.00;99540.41;5030849;28;20053;-85
2022/09/28 00:06:43;;;;;;;13.60;12.23;;;;;;;7.12;100.00;99542.91;5031807;28;20033;-84
2022/09/28 00:09:12;;;;;;;13.38;12.07;;;;;;;7.12;100.00;99542.91;5030802;28;20041;-85
2022/09/28 00:11:37;;;;;;;14.45;12.50;;;;;;;7.14;100.00;99553.25;5031528;28;20334;-84
2022/09/28 00:14:03;;;;;;;15.48;12.85;;;;;;;7.14;100.00;99542.78;5031477;28;20025;-84
2022/09/28 00:16:32;;;;;;;16.55;13.18;;;;;;;7.15;100.00;99541.84;5012443;28;20046;-85
2022/09/28 00:18:58;;;;;;;15.55;14.02;;;;;;;7.22;100.00;99540.41;5012185;28;20117;-84
2022/09/28 00:21:27;;;;;;;15.10;13.50;;;;;;;7.21;100.00;99541.38;5015809;28;20516;-85
2022/09/28 00:24:12;;;;;;;17.98;14.05;;;;;;;7.22;100.00;99532.56;5010741;28;20045;-86
2022/09/28 00:26:49;;;;;;;17.70;13.93;;;;;;;7.23;100.00;99523.75;5011163;28;20038;-84
2022/09/28 00:29:19;;;;;;;16.00;13.65;;;;;;;7.21;100.00;99530.91;5010328;28;20112;-83
2022/09/28 00:31:45;;;;;;;15.27;13.77;;;;;;;7.23;100.00;99523.75;5022240;28;20061;-84
2022/09/28 00:34:11;;;;;;;16.63;13.50;;;;;;;7.24;100.00;99525.41;5030616;28;20077;-84
2022/09/28 00:36:37;;;;;;;14.57;13.02;;;;;;;7.25;100.00;99521.84;5029286;28;20112;-83
2022/09/28 00:39:07;;;;;;;15.75;13.65;;;;;;;7.26;100.00;99518.28;5021619;28;20105;-84
2022/09/28 00:41:34;;;;;;;15.50;13.38;;;;;;;7.28;100.00;99520.75;5030423;28;20104;-84
2022/09/28 00:44:24;;;;;;;17.85;13.73;;;;;;;7.28;100.00;99513.75;5011776;28;20029;-84
2022/09/28 00:46:57;;;;;;;17.90;14.63;;;;;;;7.21;100.00;99515.19;5029660;28;20108;-83
2022/09/28 00:49:36;;;;;;;16.90;13.98;;;;;;;7.22;100.00;99501.16;5012333;28;20096;-84
2022/09/28 00:52:06;;;;;;;15.45;13.52;;;;;;;7.18;100.00;99503.19;5029033;28;20363;-83
2022/09/28 00:54:32;;;;;;;16.90;14.38;;;;;;;7.20;100.00;99508.28;5030311;28;20025;-84
2022/09/28 00:57:00;;;;;;;15.38;13.77;;;;;;;7.21;100.00;99505.56;5019373;28;20018;-83
2022/09/28 00:59:25;;;;;;;16.80;13.43;;;;;;;7.22;100.00;99496.78;5009668;28;20026;-84
2022/09/28 01:01:51;;;;;;;17.17;13.48;;;;;;;7.26;100.00;99493.91;5010458;28;20025;-83
2022/09/28 01:04:16;;;;;;;15.52;14.02;;;;;;;7.24;100.00;99501.88;4991603;28;20092;-83
2022/09/28 01:06:44;;;;;;;17.98;14.85;;;;;;;7.28;100.00;99495.44;5010302;28;20058;-83
2022/09/28 01:09:13;;;;;;;17.45;15.40;;;;;;;7.29;100.00;99491.84;5008976;28;20029;-84
2022/09/28 01:11:41;;;;;;;17.65;15.40;;;;;;;7.30;100.00;99492.69;4992444;28;20471;-83
2022/09/28 01:14:10;;;;;;;16.35;14.65;;;;;;;7.29;100.00;99497.09;5013961;28;20037;-83
2022/09/28 01:16:52;;;;;;;16.40;14.90;;;;;;;7.30;100.00;99496.13;5010432;28;20045;-83
2022/09/28 01:19:54;;;;;;;18.30;15.38;;;;;;;7.38;100.00;99501.56;5012576;28;20028;-83
2022/09/28 01:22:40;;;;;;;18.17;16.30;;;;;;;7.36;100.00;99506.09;5028991;28;20032;-83
2022/09/28 01:25:36;;;;;;;19.75;15.80;;;;;;;7.31;100.00;99508.25;5029868;28;20731;-83
2022/09/28 01:28:26;;;;;;;18.40;16.40;;;;;;;7.36;100.00;99506.09;4999443;28;20502;-83
2022/09/28 01:31:13;;;;;;;20.48;16.02;;;;;;;7.33;100.00;99502.91;5023129;28;20030;-84
2022/09/28 01:33:44;;;;;;;20.00;16.80;;;;;;;7.34;100.00;99509.78;5009662;28;20029;-84
2022/09/28 01:36:18;;;;;;;19.15;17.13;;;;;;;7.32;100.00;99502.06;5009820;28;20028;-84
2022/09/28 01:38:58;;;;;;;21.23;18.95;;;;;;;7.38;100.00;99504.19;5015819;28;20055;-84
2022/09/28 01:41:28;;;;;;;23.15;19.33;;;;;;;7.39;100.00;99513.69;5028870;28;20106;-84
2022/09/28 01:44:01;;;;;;;22.38;19.98;;;;;;;7.40;100.00;99512.72;5029351;28;20421;-84
2022/09/28 01:46:33;;;;;;;25.02;20.88;;;;;;;7.40;100.00;99515.34;5028563;28;20036;-84
2022/09/28 01:49:07;;;;;;;24.65;21.08;;;;;;;7.43;100.00;99525.56;5018921;28;20084;-85
2022/09/28 01:51:42;;;;;;;27.13;21.38;;;;;;;7.43;100.00;99520.31;5009052;28;20034;-84
2022/09/28 01:54:12;;;;;;;24.65;21.52;;;;;;;7.45;100.00;99514.97;5009166;28;20248;-84
2022/09/28 01:56:45;;;;;;;27.17;24.08;;;;;;;7.46;100.00;99519.25;5020156;28;20094;-84
2022/09/28 01:59:25;;;;;;;26.73;22.65;;;;;;;7.49;100.00;99525.06;5028432;28;20032;-83
2022/09/28 02:02:05;;;;;;;27.50;22.95;;;;;;;7.49;100.00;99513.75;5028243;28;20108;-83
2022/09/28 02:04:40;;;;;;;25.52;21.35;;;;;;;7.49;100.00;99511.97;5026518;28;20136;-84
2022/09/28 02:07:12;;;;;;;25.95;21.02;;;;;;;7.49;100.00;99511.97;5009145;28;20097;-83
2022/09/28 02:09:43;;;;;;;26.45;20.10;;;;;;;7.49;100.00;99509.34;5008869;28;20022;-83
2022/09/28 02:12:17;;;;;;;24.95;19.25;;;;;;;7.48;100.00;99507.69;4991586;28;20076;-84
2022/09/28 02:14:46;;;;;;;20.70;18.50;;;;;;;7.50;100.00;99505.78;5009294;28;20042;-83
2022/09/28 02:17:12;;;;;;;22.58;16.63;;;;;;;7.48;100.00;99517.31;5009191;28;20042;-84
2022/09/28 02:19:39;;;;;;;21.25;15.82;;;;;;;7.49;100.00;99504.13;5015570;28;20536;-84
2022/09/28 02:22:12;;;;;;;18.70;14.52;;;;;;;7.45;100.00;99515.78;5023378;28;20030;-83
2022/09/28 02:24:45;;;;;;;16.67;14.90;;;;;;;7.43;100.00;99512.47;5009666;28;20034;-84
2022/09/28 02:27:32;;;;;;;;;;;;;;;7.54;100.00;99511.59;5019065;28;20029;-83
2022/09/28 02:29:58;;;;;;;17.17;13.32;;;;;;;7.36;100.00;99506.09;5028925;28;19912;-83
2022/09/28 02:32:27;;;;;;;16.65;12.75;;;;;;;7.32;100.00;99507.31;5029299;28;20053;-84
2022/09/28 02:34:54;;;;;;;13.30;11.93;;;;;;;7.31;100.00;99499.59;5029825;28;20021;-84
2022/09/28 02:37:20;;;;;;;13.15;11.82;;;;;;;7.27;100.00;99501.63;5027896;28;20029;-83
2022/09/28 02:39:45;;;;;;;12.82;11.52;;;;;;;7.26;100.00;99499.97;5008254;28;20045;-84
2022/09/28 02:42:34;;;;;;;12.93;11.45;;;;;;;7.21;100.00;99504.75;5008980;28;20076;-83
2022/09/28 02:45:29;;;;;;;15.10;11.73;;;;;;;7.19;100.00;99498.78;5008367;28;20455;-84
2022/09/28 02:48:09;;;;;;;13.90;11.13;;;;;;;7.17;100.00;99503.31;5009423;28;20083;-84
2022/09/28 02:50:58;;;;;;;12.82;11.32;;;;;;;7.17;100.00;99506.75;5008283;28;20029;-84
2022/09/28 02:53:35;;;;;;;12.82;10.90;;;;;;;7.16;100.00;99512.94;5008844;28;20302;-83
2022/09/28 02:56:06;;;;;;;13.25;10.38;;;;;;;7.12;100.00;99516.75;5017768;28;20026;-85
2022/09/28 02:58:34;;;;;;;11.45;9.90;;;;;;;7.11;100.00;99514.25;5012027;28;20083;-84
2022/09/28 03:01:36;;;;;;;12.63;9.63;;;;;;;7.13;100.00;99520.19;5032379;28;20104;-83
2022/09/28 03:04:19;;;;;;;11.40;9.60;;;;;;;7.08;100.00;99523.19;5031258;28;20549;-83
2022/09/28 03:06:53;;;;;;;13.98;9.90;;;;;;;7.02;100.00;99521.06;5032517;28;20061;-83
2022/09/28 03:09:27;;;;;;;11.40;10.13;;;;;;;7.05;100.00;99520.81;5031871;28;20029;-83
2022/09/28 03:11:58;;;;;;;13.88;9.45;;;;;;;7.03;100.00;99522.72;5028926;28;20171;-84
2022/09/28 03:14:23;;;;;;;12.90;9.35;;;;;;;7.05;100.00;99522.59;5012801;28;20493;-84
2022/09/28 03:16:49;;;;;;;11.57;9.18;;;;;;;7.07;100.00;99518.09;5012798;28;20076;-84
2022/09/28 03:19:22;;;;;;;12.40;8.38;;;;;;;7.07;100.00;99523.31;5013630;28;20068;-84
2022/09/28 03:21:48;;;;;;;14.02;8.63;;;;;;;7.05;100.00;99520.81;5032129;28;20043;-84
2022/09/28 03:24:13;;;;;;;9.43;8.27;;;;;;;7.04;100.00;99515.72;5031823;28;20018;-84
2022/09/28 03:26:38;;;;;;;12.07;8.35;;;;;;;7.04;100.00;99523.56;5031720;28;20026;-83
2022/09/28 03:29:04;;;;;;;8.82;7.68;;;;;;;7.02;100.00;99520.25;5030991;28;20482;-84
2022/09/28 03:31:30;;;;;;;8.43;7.28;;;;;;;7.02;100.00;99508.00;5025748;28;20056;-84
2022/09/28 03:33:58;;;;;;;8.43;7.50;;;;;;;7.03;100.00;99512.28;5031909;28;20022;-84
2022/09/28 03:36:23;;;;;;;7.82;6.90;;;;;;;7.06;100.00;99513.81;5031976;28;20883;-84
2022/09/28 03:38:52;;;;;;;10.75;7.22;;;;;;;7.04;100.00;99523.56;5031988;28;20048;-84
2022/09/28 03:41:17;;;;;;;10.50;7.70;;;;;;;7.05;100.00;99518.22;5031037;28;20029;-84
2022/09/28 03:43:42;;;;;;;12.75;8.23;;;;;;;7.07;100.00;99525.94;5031638;28;20393;-83
2022/09/28 03:46:07;;;;;;;7.38;6.53;;;;;;;7.01;100.00;99521.19;5030560;28;20029;-84
2022/09/28 03:48:34;;;;;;;8.30;6.90;;;;;;;7.01;100.00;99534.28;5021767;28;20116;-84
2022/09/28 03:51:03;;;;;;;12.50;6.90;;;;;;;6.98;100.00;99532.75;5011684;28;20033;-84
2022/09/28 03:53:28;;;;;;;12.93;6.78;;;;;;;6.96;100.00;99526.81;5011162;28;20037;-83
2022/09/28 03:55:54;;;;;;;9.52;6.45;;;;;;;7.00;100.00;99524.78;5011659;28;20025;-84
2022/09/28 03:58:21;;;;;;;9.98;6.45;;;;;;;6.98;100.00;99531.91;5011436;28;20060;-83
2022/09/28 04:00:47;;;;;;;7.45;6.10;;;;;;;6.99;100.00;99526.56;5030793;28;20017;-84
2022/09/28 04:03:12;;;;;;;7.78;5.78;;;;;;;6.99;100.00;99520.50;5030845;28;20030;-83
2022/09/28 04:05:38;;;;;;;7.80;6.07;;;;;;;7.01;100.00;99523.81;5028820;28;20028;-84
2022/09/28 04:08:04;;;;;;;8.65;5.25;;;;;;;7.01;100.00;99529.03;5010417;28;20041;-84
2022/09/28 04:10:29;;;;;;;6.70;5.40;;;;;;;7.02;100.00;99525.47;5010533;28;20121;-84
2022/09/28 04:12:56;;;;;;;6.80;4.80;;;;;;;7.00;100.00;99535.22;5011628;28;20021;-84
2022/09/28 04:15:24;;;;;;;6.10;4.57;;;;;;;7.04;100.00;99534.03;5010599;28;20382;-83
2022/09/28 04:17:50;;;;;;;9.20;4.80;;;;;;;7.02;100.00;99526.31;5011422;28;20100;-83
2022/09/28 04:20:16;;;;;;;6.70;4.10;;;;;;;7.03;100.00;99521.91;5021606;28;20033;-82
2022/09/28 04:22:42;;;;;;;4.80;3.88;;;;;;;7.05;100.00;99525.22;5022721;28;20033;-82
2022/09/28 04:25:08;;;;;;;6.50;4.10;;;;;;;7.06;100.00;99524.28;5015974;28;20393;-83
2022/09/28 04:30:20;;;;;;;4.82;3.40;;;;;;;7.05;100.00;99522.59;5030187;28;20489;-83
2022/09/28 04:32:46;;;;;;;6.45;3.60;;;;;;;7.08;100.00;99519.75;5031121;28;20033;-84
2022/09/28 04:35:13;;;;;;;4.30;3.05;;;;;;;7.07;100.00;99523.31;5029595;28;20022;-83
2022/09/28 04:37:39;;;;;;;7.53;3.40;;;;;;;7.06;100.00;99509.41;5013361;28;20036;-84
2022/09/28 04:40:05;;;;;;;5.72;3.40;;;;;;;7.05;100.00;99514.75;5026385;28;20034;-84
2022/09/28 04:42:30;;;;;;;3.42;3.13;;;;;;;7.04;100.00;99513.94;5010245;28;20037;-83
2022/09/28 04:44:57;;;;;;;5.18;3.05;;;;;;;7.08;100.00;99517.13;5010468;28;20445;-83
2022/09/28 04:47:23;;;;;;;9.40;3.63;;;;;;;7.03;100.00;99516.69;5010553;28;20025;-83
2022/09/28 04:49:48;;;;;;;6.35;2.85;;;;;;;7.00;100.00;99519.53;5010028;28;20032;-84
2022/09/28 04:52:13;;;;;;;5.07;2.83;;;;;;;6.94;100.00;99522.66;5008905;28;20024;-84
2022/09/28 04:54:39;;;;;;;4.32;2.92;;;;;;;6.97;100.00;99532.88;5010247;28;20026;-83
2022/09/28 04:57:04;;;;;;;6.00;2.80;;;;;;;6.94;100.00;99525.25;5007206;28;20067;-84
2022/09/28 04:59:30;;;;;;;6.43;2.63;;;;;;;6.92;100.00;99535.84;5009550;28;20032;-84
2022/09/28 05:01:56;;;;;;;3.63;2.45;;;;;;;6.89;100.00;99531.69;5022778;28;20108;-83
2022/09/28 05:04:21;;;;;;;5.85;2.60;;;;;;;6.85;100.00;99539.91;5011723;28;20030;-83
2022/09/28 05:06:47;;;;;;;6.35;2.40;;;;;;;6.77;100.00;99537.88;5029900;28;20100;-83
2022/09/28 05:09:12;;;;;;;2.97;2.20;;;;;;;6.72;100.00;99534.81;5029593;28;20017;-84
2022/09/28 05:11:38;;;;;;;5.85;2.65;;;;;;;6.73;100.00;99544.31;5029524;28;20376;-84
2022/09/28 05:14:04;;;;;;;4.13;2.95;;;;;;;6.69;100.00;99542.06;5004743;28;20029;-84
2022/09/28 05:16:32;;;;;;;9.18;3.00;;;;;;;6.64;100.00;99545.03;5010286;28;20423;-83
2022/09/28 05:18:58;;;;;;;4.00;2.90;;;;;;;6.69;100.00;99542.88;5012167;28;20394;-84
2022/09/28 05:21:25;;;;;;;5.45;3.22;;;;;;;6.68;100.00;99549.06;5030194;28;20025;-84
2022/09/28 05:23:50;;;;;;;4.80;3.17;;;;;;;6.70;100.00;99541.09;5030189;28;20037;-84
2022/09/28 05:26:16;;;;;;;4.00;3.28;;;;;;;6.68;100.00;99549.06;5011307;28;20473;-84
2022/09/28 05:28:41;;;;;;;4.15;3.50;;;;;;;6.66;100.00;99550.97;5030334;28;20055;-84
2022/09/28 05:31:07;;;;;;;5.70;3.53;;;;;;;6.68;100.00;99550.84;5011799;28;20029;-85
2022/09/28 05:33:33;;;;;;;7.20;3.60;;;;;;;6.67;100.00;99546.56;5014826;28;20036;-84
2022/09/28 05:35:59;;;;;;;9.93;4.32;;;;;;;6.67;100.00;99547.41;4992249;28;20014;-84
2022/09/28 05:38:25;;;;;;;8.27;4.55;;;;;;;6.65;100.00;99541.47;5009751;28;20045;-85
2022/09/28 05:40:50;;;;;;;9.73;5.40;;;;;;;6.67;100.00;99542.19;5009932;28;20039;-84
2022/09/28 05:43:16;;;;;;;10.18;5.50;;;;;;;6.68;100.00;99537.78;5009616;28;20045;-84
2022/09/28 05:45:41;;;;;;;7.43;5.22;;;;;;;6.68;100.00;99533.38;5009634;28;20026;-85
2022/09/28 05:48:07;;;;;;;9.55;5.60;;;;;;;6.66;100.00;99535.28;5010895;28;20549;-85
2022/09/28 05:50:32;;;;;;;6.78;6.10;;;;;;;6.69;100.00;99535.03;5027178;28;20113;-85
2022/09/28 05:53:07;;;;;;;9.98;7.25;;;;;;;6.70;100.00;99543.72;5028424;28;20025;-84
2022/09/28 05:55:33;;;;;;;11.57;7.43;;;;;;;6.65;100.00;99551.91;5029211;28;20025;-85
2022/09/28 05:57:59;;;;;;;8.40;7.20;;;;;;;6.68;100.00;99549.06;5011471;28;20124;-85
2022/09/28 06:00:26;;;;;;;12.13;7.90;;;;;;;6.68;100.00;99559.53;5028588;28;20072;-84
2022/09/28 06:02:59;;;;;;;10.27;8.57;;;;;;;6.71;100.00;99548.81;5029595;28;20076;-85
2022/09/28 06:05:25;;;;;;;9.70;8.18;;;;;;;6.71;100.00;99554.03;5027968;28;20096;-85
2022/09/28 06:07:51;;;;;;;15.07;8.88;;;;;;;6.67;100.00;99557.84;5011733;28;20030;-85
2022/09/28 06:10:17;;;;;;;9.98;8.35;;;;;;;6.70;100.00;99554.16;5015870;28;20546;-85
2022/09/28 06:12:43;;;;;;;12.32;8.60;;;;;;;6.70;100.00;99556.78;5029603;28;20045;-85
2022/09/28 06:15:09;;;;;;;14.15;8.60;;;;;;;6.68;100.00;99559.53;5007914;28;20025;-86
2022/09/28 06:17:35;;;;;;;13.30;8.85;;;;;;;6.65;100.00;99565.00;5008907;28;20088;-85
2022/09/28 06:20:00;;;;;;;14.90;8.77;;;;;;;6.60;100.00;99565.34;5026287;28;20045;-85
2022/09/28 06:22:25;;;;;;;10.82;9.32;;;;;;;6.60;100.00;99567.13;5026869;28;20159;-85
2022/09/28 06:24:51;;;;;;;11.45;9.68;;;;;;;6.61;100.00;99563.56;5028642;28;20022;-85
2022/09/28 06:27:16;;;;;;;20.38;10.70;;;;;;;6.62;100.00;99565.22;5028015;28;20476;-85
2022/09/28 06:29:41;;;;;;;12.30;10.50;;;;;;;6.60;100.00;99561.91;5024370;28;20137;-85
2022/09/28 06:32:07;;;;;;;14.18;10.85;;;;;;;6.64;100.00;99565.94;5025962;28;20045;-85
2022/09/28 06:34:33;;;;;;;17.85;11.85;;;;;;;6.62;100.00;99569.63;5023353;28;20025;-84
2022/09/28 06:36:59;;;;;;;23.40;12.82;;;;;;;6.62;100.00;99570.47;5021105;28;20029;-85
2022/09/28 06:39:24;;;;;;;16.20;13.20;;;;;;;6.66;100.00;99571.88;5023601;28;20033;-85
2022/09/28 06:41:50;;;;;;;16.27;13.77;;;;;;;6.70;100.00;99572.47;5027754;28;20025;-85
2022/09/28 06:44:15;;;;;;;19.85;14.32;;;;;;;6.73;100.00;99569.59;5021511;28;20029;-85
2022/09/28 06:46:40;;;;;;;16.23;14.52;;;;;;;6.76;100.00;99582.44;5023092;28;20083;-84
2022/09/28 06:49:08;;;;;;;18.83;14.75;;;;;;;6.80;100.00;99579.47;5023544;28;20037;-84
2022/09/28 06:51:34;;;;;;;17.63;15.07;;;;;;;6.87;100.00;99585.06;5022195;28;20413;-84
2022/09/28 06:53:59;;;;;;;18.17;15.40;;;;;;;6.95;100.00;99584.44;5024814;28;20025;-84
2022/09/28 06:56:25;;;;;;;22.20;15.40;;;;;;;7.02;100.00;99590.84;5022461;28;20428;-84
2022/09/28 06:58:50;;;;;;;17.77;14.95;;;;;;;7.14;100.00;99582.84;5021096;28;20029;-84
2022/09/28 07:01:15;;;;;;;18.42;14.57;;;;;;;7.21;100.00;99588.44;5013757;28;20021;-84
2022/09/28 07:03:42;;;;;;;17.30;14.57;;;;;;;7.33;100.00;99587.44;5030092;28;20044;-84
2022/09/28 07:06:10;;;;;;;20.98;14.95;;;;;;;7.52;100.00;99595.47;5027257;28;20121;-85
2022/09/28 07:08:35;;;;;;;17.08;14.20;;;;;;;7.66;100.00;99598.75;5032203;28;20025;-84
2022/09/28 07:11:04;;;;;;;19.27;13.25;;;;;;;7.75;100.00;99600.63;5013504;28;20020;-86
2022/09/28 07:13:30;;;;;;;14.32;12.60;;;;;;;7.83;100.00;99596.41;5031929;28;20036;-84
2022/09/28 07:15:59;;;;;;;14.23;12.10;;;;;;;7.83;100.00;99604.25;5031677;28;20378;-84
2022/09/28 07:18:28;;;;;;;12.20;10.85;;;;;;;7.88;100.00;99601.25;5027976;28;20394;-84
2022/09/28 07:20:55;;;;;;;11.68;10.48;;;;;;;7.99;100.00;99597.75;5014078;28;20498;-84
2022/09/28 07:23:22;;;;;;;14.02;10.35;;;;;;;8.07;100.00;99593.56;5008554;28;20105;-84
2022/09/28 07:25:48;;;;;;;12.20;10.25;;;;;;;8.20;100.00;99597.75;5007659;28;20037;-84
2022/09/28 07:28:14;;;;;;;12.88;9.38;;;;;;;8.27;100.00;99610.19;5009402;28;20080;-84
2022/09/28 07:30:41;;;;;;;12.07;9.45;;;;;;;8.32;100.00;99607.19;5012209;28;20038;-84
2022/09/28 07:33:08;;;;;;;14.13;8.80;;;;;;;8.43;100.00;99608.00;5014151;28;20029;-83
2022/09/28 07:35:34;;;;;;;11.30;8.98;;;;;;;8.53;100.00;99610.66;5031788;28;20033;-85
2022/09/28 07:38:05;;;;;;;10.95;7.97;;;;;;;8.60;100.00;99611.78;5031672;28;20417;-84
2022/09/28 07:43:19;;;;;;;11.98;8.95;;;;;;;8.78;100.00;99609.38;5000499;28;20063;-85
2022/09/28 07:45:46;;;;;;;9.50;8.18;;;;;;;8.84;100.00;99608.88;5014019;28;20171;-85
2022/09/28 07:48:14;;;;;;;9.75;8.27;;;;;;;8.95;100.00;99615.78;5031459;28;20503;-84
2022/09/28 07:50:39;;;;;;;12.55;8.70;;;;;;;9.05;100.00;99612.22;5030823;28;20056;-86
2022/09/28 07:53:04;;;;;;;8.05;7.22;;;;;;;9.11;100.00;99616.09;5029972;28;20060;-86
2022/09/28 07:55:29;;;;;;;10.98;6.80;;;;;;;9.23;100.00;99622.91;5031927;28;20456;-86
2022/09/28 07:57:59;;;;;;;9.00;7.05;;;;;;;9.35;100.00;99621.84;5017712;28;20022;-85
2022/09/28 08:00:28;;;;;;;11.45;7.22;;;;;;;9.47;100.00;99619.06;5011829;28;20104;-85
2022/09/28 08:02:54;;;;;;;11.27;7.28;;;;;;;9.55;100.00;99619.22;5014061;28;20033;-85
2022/09/28 08:05:19;;;;;;;8.35;6.68;;;;;;;9.63;100.00;99617.59;5011145;28;20061;-84
2022/09/28 08:07:44;;;;;;;9.10;7.30;;;;;;;9.78;100.00;99625.88;4992899;28;20521;-85
2022/09/28 08:10:10;;;;;;;7.65;6.68;;;;;;;9.83;100.00;99618.41;5012710;28;20112;-86
2022/09/28 08:12:39;;;;;;;8.73;6.80;;;;;;;9.92;100.00;99622.81;4994522;28;20136;-86
2022/09/28 08:15:09;;;;;;;7.13;6.38;;;;;;;10.04;100.00;99626.16;5015422;28;20533;-85
2022/09/28 08:17:34;;;;;;;10.10;6.57;;;;;;;10.02;100.00;99618.41;5025588;28;20098;-85
2022/09/28 08:22:44;;;;;;;10.85;6.50;;;;;;;10.30;100.00;99626.41;5031132;28;20107;-85
2022/09/28 08:25:12;;;;;;;11.68;6.78;;;;;;;10.43;100.00;99629.56;5030969;28;20033;-85
2022/09/28 08:27:37;;;;;;;9.43;6.45;;;;;;;10.56;100.00;99639.78;5030607;28;20037;-86
2022/09/28 08:30:03;;;;;;;8.85;6.35;;;;;;;10.61;99.93;99637.53;5030741;28;20025;-85
2022/09/28 08:32:28;;;;;;;9.30;6.00;;;;;;;10.81;99.96;99641.78;5030796;28;20036;-86
2022/09/28 08:34:54;;;;;;;7.18;5.50;;;;;;;10.90;98.24;99646.16;5030292;28;20032;-85
2022/09/28 08:37:20;;;;;;;6.95;5.60;;;;;;;11.04;97.30;99641.38;5030633;28;20014;-85
2022/09/28 08:39:45;;;;;;;8.65;5.70;;;;;;;11.12;98.07;99639.69;5030889;28;20033;-85
2022/09/28 08:42:32;;;;;;;7.20;5.13;;;;;;;11.21;96.71;99649.34;5029869;28;20021;-86
2022/09/28 08:45:11;;;;;;;8.52;5.22;;;;;;;11.25;94.77;99648.06;5028813;28;20021;-87
2022/09/28 08:50:44;;;;;;;7.82;4.57;;;;;;;11.57;95.12;99654.66;5030402;28;20072;-87
2022/09/28 08:53:34;;;;;;;9.55;4.82;;;;;;;11.70;95.43;99660.41;5029150;28;20034;-88
2022/09/28 08:56:04;;;;;;;8.10;4.57;;;;;;;11.68;93.39;99662.38;5029889;28;20729;-88
2022/09/28 08:58:34;;;;;;;8.82;4.75;;;;;;;11.77;91.03;99661.47;5030336;28;20290;-88
2022/09/28 09:01:01;;;;;;;6.72;4.20;;;;;;;11.93;91.26;99664.25;5030589;28;20022;-86
2022/09/28 09:03:31;;;;;;;6.72;4.72;;;;;;;11.98;91.98;99661.16;5029436;28;20091;-85
2022/09/28 09:06:12;;;;;;;6.68;4.50;;;;;;;12.15;91.73;99670.06;5029327;28;20119;-86
2022/09/28 09:08:43;;;;;;;8.02;4.70;;;;;;;12.28;91.15;99662.56;5027269;28;20025;-86
2022/09/28 09:11:17;;;;;;;5.40;4.00;;;;;;;12.38;89.79;99668.59;5022402;28;20112;-85
2022/09/28 09:14:14;;;;;;;6.78;4.13;;;;;;;12.47;91.23;99665.03;5026655;28;20025;-87
2022/09/28 09:16:54;;;;;;;10.48;4.72;;;;;;;12.45;89.85;99672.28;5028969;28;20069;-86
2022/09/28 09:19:38;;;;;;;8.43;4.20;;;;;;;12.64;88.85;99667.78;5012201;28;20021;-85
2022/09/28 09:22:28;;;;;;;6.57;4.35;;;;;;;12.76;90.77;99677.06;5029535;28;20507;-87
2022/09/28 09:25:06;;;;;;;7.47;3.47;;;;;;;12.50;85.95;99682.38;5029071;28;20029;-85
2022/09/28 09:27:56;;;;;;;7.32;3.80;;;;;;;12.59;89.67;99681.44;5029626;28;20378;-85
2022/09/28 09:30:23;;;;;;;7.63;3.30;;;;;;;12.77;88.54;99676.91;5027758;28;20029;-86
2022/09/28 09:33:25;;;;;;;5.32;3.53;;;;;;;12.86;90.05;99680.47;5028715;28;20021;-85
2022/09/28 09:36:21;;;;;;;7.00;3.20;;;;;;;12.92;88.23;99679.81;4996169;28;20104;-86
2022/09/28 09:39:06;;;;;;;5.05;2.97;;;;;;;12.88;85.23;99691.69;5029160;28;20084;-85
2022/09/28 09:42:07;;;;;;;5.75;3.03;;;;;;;12.99;86.84;99690.59;5029628;28;20180;-83
2022/09/28 09:44:56;;;;;;;6.05;3.40;;;;;;;13.05;84.85;99687.31;5029014;28;20572;-85
2022/09/28 09:47:28;;;;;;;8.30;3.22;;;;;;;13.13;85.56;99688.16;4998142;28;20378;-85
2022/09/28 09:49:54;;;;;;;;;;;;;;;13.36;88.97;99692.94;5030277;28;20021;-85
2022/09/28 09:52:26;;;;;;;6.88;3.05;;;;;;;13.26;83.68;99700.16;5028512;28;19916;-84
2022/09/28 09:55:00;;;;;;;7.60;2.88;;;;;;;13.37;83.54;99694.59;5029878;28;20022;-85
2022/09/28 09:57:50;;;;;;;5.57;2.70;;;;;;;13.47;84.20;99695.28;5029069;28;20029;-86
2022/09/28 10:00:16;;;;;;;5.72;3.00;;;;;;;13.40;84.33;99688.97;4993773;28;20901;-85
2022/09/28 10:02:45;;;;;;;5.70;2.92;;;;;;;13.45;81.72;99692.78;5030009;28;20035;-85
2022/09/28 10:05:10;;;;;;;8.30;3.03;;;;;;;13.47;81.28;99690.00;5025868;28;20033;-85
2022/09/28 10:07:42;;;;;;;4.80;2.75;;;;;;;13.40;80.76;99689.81;5027639;28;20045;-85
2022/09/28 10:10:16;;;;;;;8.48;3.20;;;;;;;13.31;82.36;99692.59;5029501;28;20021;-86
2022/09/28 10:12:42;;;;;;;5.72;3.25;;;;;;;13.40;83.74;99688.97;5011435;28;20025;-86
2022/09/28 10:15:14;;;;;;;5.32;2.90;;;;;;;13.43;81.07;99697.41;5029074;28;20028;-86
2022/09/28 10:17:39;;;;;;;4.85;3.03;;;;;;;13.42;81.95;99687.00;5033445;28;20095;-86
2022/09/28 10:20:10;;;;;;;8.88;2.70;;;;;;;13.59;82.29;99687.88;5028717;28;20033;-86
2022/09/28 10:22:35;;;;;;;6.63;3.13;;;;;;;13.77;80.83;99686.78;5029364;28;20037;-86
2022/09/28 10:25:03;;;;;;;4.85;2.83;;;;;;;13.85;81.68;99682.47;5029054;28;20029;-85
2022/09/28 10:27:33;;;;;;;4.85;2.83;;;;;;;13.89;80.10;99689.09;5010479;28;20073;-85
2022/09/28 10:30:10;;;;;;;6.60;3.03;;;;;;;13.74;82.07;99680.97;5028600;28;20032;-85
2022/09/28 10:32:45;;;;;;;6.07;2.80;;;;;;;13.65;79.73;99688.06;5028766;28;20029;-85
2022/09/28 10:35:39;;;;;;;6.88;2.70;;;;;;;13.63;82.20;99690.06;5027743;28;20022;-85
2022/09/28 10:38:06;;;;;;;8.02;3.10;;;;;;;13.51;80.08;99680.75;5028168;28;20033;-86
2022/09/28 10:40:46;;;;;;;7.32;3.13;;;;;;;13.51;81.17;99685.22;5028201;28;20031;-84
2022/09/28 10:43:20;;;;;;;7.13;2.80;;;;;;;13.39;80.98;99682.03;5023918;28;20025;-86
2022/09/28 10:45:46;;;;;;;6.90;2.90;;;;;;;13.43;81.25;99684.19;5027399;28;20021;-85
2022/09/28 10:48:19;;;;;;;5.35;3.00;;;;;;;13.45;83.17;99691.97;5022824;28;20026;-85
2022/09/28 10:51:00;;;;;;;5.65;2.80;;;;;;;13.45;81.69;99686.69;5026218;28;20313;-85
2022/09/28 10:53:26;;;;;;;5.88;2.95;;;;;;;13.68;81.66;99676.34;5027526;28;20043;-85
2022/09/28 10:56:08;;;;;;;5.07;2.55;;;;;;;13.92;80.25;99684.31;5020739;28;20088;-84
2022/09/28 10:58:39;;;;;;;7.78;2.97;;;;;;;13.94;77.28;99684.16;5028601;28;20033;-86
2022/09/28 11:01:22;;;;;;;4.85;2.60;;;;;;;14.16;78.16;99680.03;5010222;28;20022;-84
2022/09/28 11:03:55;;;;;;;6.22;2.33;;;;;;;14.31;80.57;99676.56;5009987;28;20057;-84
2022/09/28 11:06:28;;;;;;;4.45;2.38;;;;;;;14.43;78.02;99678.91;5026430;28;20028;-83
2022/09/28 11:08:56;;;;;;;3.88;2.38;;;;;;;14.62;76.88;99673.25;5027328;28;20175;-84
2022/09/28 11:11:23;;;;;;;5.32;2.00;;;;;;;14.74;73.39;99669.25;5027609;28;20108;-84
2022/09/28 11:13:50;;;;;;;3.88;1.80;;;;;;;14.92;73.25;99671.72;5028305;28;20032;-84
2022/09/28 11:16:24;;;;;;;4.18;1.73;;;;;;;15.09;75.28;99675.13;5029904;28;20127;-84
2022/09/28 11:18:50;;;;;;;6.30;1.90;;;;;;;15.13;74.30;99671.13;5032856;28;20029;-84
2022/09/28 11:21:20;;;;;;;4.93;1.65;;;;;;;15.15;73.65;99672.59;5032350;28;20032;-84
2022/09/28 11:24:05;;;;;;;2.78;1.40;;;;;;;15.17;75.29;99677.72;5031270;28;20026;-84
2022/09/28 11:26:39;;;;;;;2.53;1.45;;;;;;;14.99;73.79;99668.19;5010807;28;20076;-85
2022/09/28 11:29:06;;;;;;;4.93;1.50;;;;;;;14.86;75.23;99672.38;5024765;28;20029;-85
2022/09/28 11:31:33;;;;;;;5.35;1.48;;;;;;;14.67;71.07;99678.88;5031565;28;20104;-84
2022/09/28 11:34:22;;;;;;;5.72;1.92;;;;;;;14.57;74.91;99678.22;5032153;28;20030;-84
2022/09/28 11:37:02;;;;;;;4.97;1.85;;;;;;;14.31;75.00;99679.19;5032148;28;20104;-85
2022/09/28 11:39:44;;;;;;;5.18;2.10;;;;;;;14.16;76.26;99691.44;5013974;28;20045;-84
2022/09/28 11:42:33;;;;;;;2.80;2.00;;;;;;;14.34;76.23;99675.41;5031473;28;20442;-84
2022/09/28 11:45:23;;;;;;;8.40;2.50;;;;;;;14.64;76.21;99680.03;5031317;28;20021;-84
2022/09/28 11:47:59;;;;;;;6.63;2.90;;;;;;;14.90;74.61;99674.53;5032041;28;20072;-86
2022/09/28 11:50:40;;;;;;;4.80;2.30;;;;;;;15.05;74.10;99671.97;5031978;28;20029;-84
2022/09/28 11:53:35;;;;;;;5.38;2.45;;;;;;;14.92;74.61;99672.53;5030747;28;20021;-85
2022/09/28 11:56:30;;;;;;;3.53;2.33;;;;;;;14.72;76.47;99666.78;5031083;28;20025;-84